Pagina principale
METAR-TAF:

METAR-TAF

Aeroporti :

York Airport

York, Pennsylvania, Stati Uniti

latitudine: 39-55-10N, longitudine: 076-52-37W, altezza: 146 m

Osservazione

Il bollettino è stato emesso 24 minuti fa, alle 10:53 UTC
Vento calmo
Temperature 14°C
Umidità 94%
Pressione 1023 hPa
Visibilità: 16.1 km
Nubi sparse ad un'altezza di 12000 ft

METAR: KTHV 231053Z AUTO 00000KT 10SM SCT120 14/13 A3020 RMK AO2 RAB0955E11 SLP228 P0000 T01390128

Ora: 07:17 (11:17 UTC)


TAF: mancante

Osservazioni e previsioni meteorologiche di più di 4000 aeroporti (messaggi METAR e TAF).

Le stazioni disponibili sono rappresentate dai dischi gialli e rossi sulla carta.

Puntare il mouse per vedere il nome della stazione.

Clicca sopra per visualizzare le osservazioni e previsioni meteorologiche.

Per cambiare la mappa : fare clic sui pulsanti verdi con una croce nera per ingrandire, il pulsante verde con un trattino per diminuire, o sulla freccia verde per le mappe adiacenti.


METAR-TAF: